Airfield :
LOGIN :

Register | Disclaimer

   EN    FR    IT 

 










Legend :    VFR   Marginal VFR   IFR   Intensive IFR   Very Intensive IFR
Visi :
Ceiling :
>= 8 km
>= 3000ft
5 to 8 km
1000 to 3000 ft
1500m to 5 km
500 to 1000 ft
800 to 1500m
200 to 500 ft
< 800m
< 200 ft
Symbols :   Thunderstorms  Fog  Heavy snow  Heavy precipitations  Wind > 20 kt
SIGMETs :     Misc.  Thunderstorms  Icing  Turbulence  Mountain Waves  Volcanic Ashes






- Airport Elevation : 479 ft
- IATA code : DOL


LFRG - Deauville

CURRENT METAR :
  • 250400Z AUTO 00000KT 9999 FEW033 SCT140 07/07 Q1018

EXPIRED METARs :
  • 250330Z AUTO VRB02KT 9999 SCT033 BKN066 08/07 Q1018
  • 250300Z AUTO VRB02KT 9999 SCT032 SCT070 08/07 Q1019
  • 250230Z AUTO VRB02KT 9999 FEW032 SCT130 08/07 Q1019
  • 250200Z AUTO VRB03KT 9999 FEW036 SCT066 BKN130 07/07 Q1019
  • 250130Z AUTO VRB02KT CAVOK 08/07 Q1019
  • 250100Z AUTO 06002KT 9999 FEW038 09/08 Q1019
  • 250030Z AUTO 00000KT 9999 BKN041 OVC047 09/08 Q1020
  • 250000Z AUTO VRB03KT 9999 FEW045 SCT064 09/07 Q1020
  • 242330Z AUTO VRB02KT CAVOK 09/07 Q1020

Expired Forecast.
ATIS : +33 2 31 65 65 36



MET'MAP, your aeronautical weather chart ! - Copyright ORBIFLY December 2007 - Disclaimer

ORBIFLY MET'MAP TEAM :

Programming & Development : Alexandra Zaïnal
Original concept : Baudouin d'Aumeries
Technical & hardware support : Manuel Goepfert
Assistance : Marc-Olivier Méhu




SOURCES & CREDITS :

   NOAA